createdAt,value
2022-08-23T00:01:43.609Z,99.90
2022-08-23T00:06:46.468Z,99.90
2022-08-23T00:11:49.194Z,99.90
2022-08-23T00:16:52.065Z,99.90
2022-08-23T00:21:54.921Z,99.90
2022-08-23T00:27:04.970Z,99.90
2022-08-23T00:32:07.931Z,99.90
2022-08-23T00:37:10.711Z,99.90
2022-08-23T00:42:27.290Z,99.90
2022-08-23T00:47:43.078Z,99.90
2022-08-23T00:52:48.757Z,99.90
2022-08-23T00:57:51.597Z,99.90
2022-08-23T01:02:54.977Z,99.90
2022-08-23T01:07:57.819Z,99.90
2022-08-23T01:13:00.997Z,99.90
2022-08-23T01:18:03.862Z,99.90
2022-08-23T01:23:07.353Z,99.90
2022-08-23T01:28:10.543Z,99.90
2022-08-23T01:33:13.410Z,99.90
2022-08-23T01:38:26.300Z,99.90
2022-08-23T01:43:34.941Z,99.90
2022-08-23T01:48:37.672Z,99.90
2022-08-23T01:53:40.874Z,99.90
2022-08-23T01:58:43.653Z,99.90
2022-08-23T02:03:46.866Z,99.90
2022-08-23T02:09:05.683Z,99.90
2022-08-23T02:14:20.387Z,99.90
2022-08-23T02:19:23.205Z,99.90
2022-08-23T02:24:26.117Z,99.90
2022-08-23T02:29:29.795Z,99.90
2022-08-23T02:34:33.534Z,99.90
2022-08-23T02:39:38.870Z,99.90
2022-08-23T02:49:46.185Z,99.90
2022-08-23T02:54:48.906Z,99.90
2022-08-23T02:59:52.337Z,99.90
2022-08-23T03:04:55.495Z,99.90
2022-08-23T03:09:58.617Z,99.90
2022-08-23T03:15:01.486Z,99.90
2022-08-23T03:25:11.998Z,99.90
2022-08-23T03:30:19.296Z,99.90
2022-08-23T03:35:22.635Z,99.90
2022-08-23T03:40:25.459Z,99.90
2022-08-23T03:45:28.297Z,99.90
2022-08-23T03:50:31.017Z,99.90
2022-08-23T03:55:34.545Z,99.90
2022-08-23T04:00:45.061Z,99.90
2022-08-23T04:05:48.021Z,99.90
2022-08-23T04:15:55.235Z,99.90
2022-08-23T04:26:02.936Z,99.90
2022-08-23T04:31:05.789Z,99.90
2022-08-23T04:36:08.633Z,99.90
2022-08-23T04:41:29.185Z,99.90
2022-08-23T04:51:37.001Z,99.90
2022-08-23T04:56:39.854Z,99.90
2022-08-23T05:01:42.846Z,99.90
2022-08-23T05:21:57.169Z,99.90
2022-08-23T17:22:53.232Z,93.40
2022-08-23T17:27:56.170Z,93.70
2022-08-23T17:32:59.913Z,93.80
2022-08-23T17:38:03.065Z,94.40
2022-08-23T17:43:05.742Z,94.50
2022-08-23T17:48:08.494Z,95.00
2022-08-23T17:53:12.510Z,95.70
2022-08-23T17:58:15.440Z,95.80
2022-08-23T18:03:20.543Z,96.40
2022-08-23T18:08:23.382Z,96.70
2022-08-23T18:13:26.876Z,97.70
2022-08-23T18:18:30.374Z,98.20
2022-08-23T18:23:33.113Z,98.80
2022-08-23T18:28:35.871Z,99.40
2022-08-23T18:33:46.871Z,99.90
2022-08-23T18:38:50.478Z,99.90
2022-08-23T18:43:54.086Z,99.90
2022-08-23T18:48:57.461Z,99.90
2022-08-23T18:54:00.684Z,99.90
2022-08-23T18:59:03.489Z,99.90
2022-08-23T19:04:06.218Z,99.90
2022-08-23T19:09:08.967Z,99.90
2022-08-23T19:14:15.694Z,99.90
2022-08-23T19:19:18.732Z,99.90
2022-08-23T19:24:23.713Z,99.90
2022-08-23T19:29:36.428Z,99.90
2022-08-23T19:34:41.215Z,99.90
2022-08-23T19:39:54.083Z,99.90
2022-08-23T19:44:56.854Z,99.90
2022-08-23T19:49:59.586Z,99.90
2022-08-23T19:55:13.446Z,99.90
2022-08-23T20:00:31.271Z,99.90
2022-08-23T20:05:45.319Z,99.90
2022-08-23T20:10:48.216Z,99.90
2022-08-23T20:15:55.547Z,99.90
2022-08-23T20:21:05.961Z,99.90
2022-08-23T20:26:08.948Z,99.90
2022-08-23T20:31:11.826Z,99.90
2022-08-23T20:36:14.562Z,99.90
2022-08-23T20:41:17.564Z,99.90
2022-08-23T20:46:20.798Z,99.90
2022-08-23T20:51:23.696Z,99.90
2022-08-23T20:56:28.169Z,99.90
2022-08-23T21:01:31.028Z,99.90
2022-08-23T21:06:34.080Z,99.90
2022-08-23T21:11:36.831Z,99.90
2022-08-23T21:16:39.539Z,99.90
2022-08-23T21:21:42.442Z,99.90
2022-08-23T21:26:45.476Z,99.90
2022-08-23T21:31:48.292Z,99.90
2022-08-23T21:36:51.448Z,99.90
2022-08-23T21:41:56.068Z,99.90
2022-08-23T21:46:59.688Z,99.90
2022-08-23T21:52:02.504Z,99.90
2022-08-23T21:57:05.923Z,99.90
2022-08-23T22:02:08.722Z,99.90
2022-08-23T22:07:11.812Z,99.90
2022-08-23T22:12:14.793Z,99.90
2022-08-23T22:17:18.005Z,99.90
2022-08-23T22:22:21.452Z,99.90
2022-08-23T22:27:24.329Z,99.90
2022-08-23T22:32:27.070Z,99.90
2022-08-23T22:37:30.154Z,99.90
2022-08-23T22:42:33.609Z,99.90
2022-08-23T22:47:38.792Z,99.90
2022-08-23T22:52:42.427Z,99.90
2022-08-23T22:57:45.566Z,99.90
2022-08-23T23:02:48.277Z,99.90
2022-08-23T23:08:08.660Z,99.90
2022-08-23T23:13:11.418Z,99.90
2022-08-23T23:18:14.712Z,99.90
2022-08-23T23:23:17.455Z,99.90
2022-08-23T23:28:20.182Z,99.90
2022-08-23T23:33:23.266Z,99.90
2022-08-23T23:38:25.970Z,99.90
2022-08-23T23:43:28.708Z,99.90
2022-08-23T23:48:31.427Z,99.90
2022-08-23T23:53:34.349Z,99.90
2022-08-23T23:58:38.532Z,99.90
